Time;durP1;ratioP1;P1;durP2;ratioP2;P2;SDS_P1;SDS_P2;PMS_P1;PMS_P2;Temp;Humidity;BMP_temperature;BMP_pressure;BME280_temperature;BME280_humidity;BME280_pressure;Samples;Min_cycle;Max_cycle;Signal;HPM_P1;HPM_P2
2022/05/07 00:02:17;;;;;;;17.83;15.87;;;12.40;99.90;;;;;;5053746;28;20199;-59
2022/05/07 00:04:45;;;;;;;17.17;15.37;;;12.40;99.90;;;;;;5053503;28;20239;-59
2022/05/07 00:07:13;;;;;;;20.70;16.23;;;12.40;99.90;;;;;;5052464;28;20202;-59
2022/05/07 00:09:40;;;;;;;18.93;16.67;;;12.40;99.90;;;;;;5053487;28;20630;-59
2022/05/07 00:12:08;;;;;;;19.80;16.87;;;12.30;99.90;;;;;;5053575;28;20203;-59
2022/05/07 00:14:35;;;;;;;19.53;16.27;;;12.40;99.90;;;;;;5053402;28;20219;-59
2022/05/07 00:19:49;;;;;;;20.07;16.33;;;12.40;99.90;;;;;;5053225;28;20233;-59
2022/05/07 00:22:16;;;;;;;19.73;16.03;;;12.30;99.90;;;;;;5053063;28;20206;-58
2022/05/07 00:24:43;;;;;;;18.77;16.90;;;12.20;99.90;;;;;;5053572;28;20199;-59
2022/05/07 00:27:12;;;;;;;18.20;16.30;;;12.10;99.90;;;;;;5053560;28;20565;-59
2022/05/07 00:29:40;;;;;;;19.57;17.50;;;12.10;99.90;;;;;;5053303;28;20199;-59
2022/05/07 00:32:07;;;;;;;20.43;17.80;;;12.00;99.90;;;;;;5052904;28;20199;-59
2022/05/07 00:34:34;;;;;;;22.07;17.93;;;12.00;99.90;;;;;;5053053;28;20216;-59
2022/05/07 00:37:03;;;;;;;22.00;18.60;;;11.90;99.90;;;;;;5052765;28;20214;-58
2022/05/07 00:39:30;;;;;;;21.50;17.77;;;11.90;99.90;;;;;;5053064;28;20195;-59
2022/05/07 00:42:02;;;;;;;17.93;16.03;;;11.90;99.90;;;;;;5052703;28;20679;-59
2022/05/07 00:44:28;;;;;;;21.70;18.27;;;11.90;99.90;;;;;;5052665;28;20184;-59
2022/05/07 00:47:02;;;;;;;23.67;17.43;;;12.10;99.90;;;;;;5052871;28;20203;-59
2022/05/07 00:49:29;;;;;;;24.03;17.63;;;11.90;99.90;;;;;;5052914;28;20180;-59
2022/05/07 00:51:55;;;;;;;21.93;19.13;;;11.80;99.90;;;;;;5052858;28;20537;-58
2022/05/07 00:54:24;;;;;;;18.00;16.10;;;11.80;99.90;;;;;;5052840;28;20300;-59
2022/05/07 00:56:52;;;;;;;19.73;17.17;;;11.70;99.90;;;;;;5052797;28;20257;-59
2022/05/07 00:59:19;;;;;;;24.47;19.63;;;11.70;99.90;;;;;;5052729;28;20297;-59
2022/05/07 01:01:46;;;;;;;22.77;18.10;;;11.80;99.90;;;;;;5052811;28;20334;-59
2022/05/07 01:04:13;;;;;;;23.20;19.10;;;11.90;99.90;;;;;;5052611;28;20253;-59
2022/05/07 01:06:41;;;;;;;19.87;17.33;;;11.90;99.90;;;;;;5052709;28;20200;-61
2022/05/07 01:09:08;;;;;;;21.63;18.17;;;11.60;99.90;;;;;;5052422;28;20558;-61
2022/05/07 01:11:37;;;;;;;22.90;18.87;;;11.20;99.90;;;;;;5052442;28;20192;-61
2022/05/07 01:14:04;;;;;;;24.53;19.50;;;11.20;99.90;;;;;;5052413;28;20211;-61
2022/05/07 01:16:31;;;;;;;27.97;20.73;;;11.30;99.90;;;;;;5052365;28;20201;-61
2022/05/07 01:18:58;;;;;;;25.00;20.57;;;11.20;99.90;;;;;;5052281;28;20202;-61
2022/05/07 01:21:27;;;;;;;24.87;20.10;;;11.30;99.90;;;;;;5052063;28;20656;-59
2022/05/07 01:23:54;;;;;;;25.67;20.90;;;11.40;99.90;;;;;;5052364;28;20527;-58
2022/05/07 01:26:22;;;;;;;23.23;19.27;;;11.40;99.90;;;;;;5052282;28;20206;-59
2022/05/07 01:28:49;;;;;;;24.23;19.43;;;11.40;99.90;;;;;;5052386;28;20233;-59
2022/05/07 01:31:18;;;;;;;22.00;18.67;;;11.50;99.90;;;;;;5052225;28;20198;-58
2022/05/07 01:33:45;;;;;;;24.47;19.50;;;11.50;99.90;;;;;;5052082;28;20211;-58
2022/05/07 01:36:16;;;;;;;20.30;18.13;;;11.50;99.90;;;;;;5052289;28;20199;-59
2022/05/07 01:38:44;;;;;;;21.17;17.63;;;11.50;99.90;;;;;;5052178;28;20175;-59
2022/05/07 01:41:11;;;;;;;19.77;16.73;;;11.50;99.90;;;;;;5052002;28;20230;-59
2022/05/07 01:43:38;;;;;;;22.00;17.73;;;11.70;99.90;;;;;;5052088;28;20291;-59
2022/05/07 01:48:09;;;;;;;19.17;17.17;;;11.70;99.90;;;;;;5051728;28;20657;-59
2022/05/07 01:48:52;;;;;;;21.07;18.53;;;11.70;99.90;;;;;;5052114;28;20191;-59
2022/05/07 01:51:19;;;;;;;20.30;17.27;;;11.70;99.90;;;;;;5051677;28;20600;-59
2022/05/07 01:53:47;;;;;;;22.30;18.73;;;11.70;99.90;;;;;;5051672;28;20202;-59
2022/05/07 01:56:14;;;;;;;20.47;17.40;;;11.60;99.90;;;;;;5051623;28;20694;-59
2022/05/07 01:58:41;;;;;;;19.27;16.53;;;11.50;99.90;;;;;;5051591;28;20660;-59
2022/05/07 02:01:10;;;;;;;23.60;18.13;;;11.60;99.90;;;;;;5051983;28;20213;-59
2022/05/07 02:03:38;;;;;;;19.37;16.90;;;11.70;99.90;;;;;;5051837;28;20569;-58
2022/05/07 02:06:05;;;;;;;20.47;18.23;;;11.80;99.90;;;;;;5051833;28;20524;-58
2022/05/07 02:08:32;;;;;;;20.97;18.60;;;11.70;99.90;;;;;;5051982;28;20207;-59
2022/05/07 02:11:01;;;;;;;18.07;15.80;;;11.50;99.90;;;;;;5051484;28;20784;-59
2022/05/07 02:13:29;;;;;;;20.63;17.97;;;11.10;99.90;;;;;;5051811;28;20209;-58
2022/05/07 02:15:55;;;;;;;21.87;18.77;;;10.80;99.90;;;;;;5051960;28;20607;-58
2022/05/07 02:18:22;;;;;;;18.77;16.77;;;10.80;99.90;;;;;;5052119;28;20293;-59
2022/05/07 02:20:50;;;;;;;18.80;16.80;;;10.60;99.90;;;;;;5051825;28;20197;-59
2022/05/07 02:23:17;;;;;;;22.57;17.60;;;10.40;99.90;;;;;;5052086;28;20197;-58
2022/05/07 02:25:44;;;;;;;25.03;20.43;;;10.50;99.90;;;;;;5052134;28;20555;-59
2022/05/07 02:28:13;;;;;;;23.20;20.20;;;10.50;99.90;;;;;;5052273;28;20197;-61
2022/05/07 02:30:39;;;;;;;24.63;20.20;;;10.60;99.90;;;;;;5052919;28;20201;-61
2022/05/07 02:33:07;;;;;;;24.10;19.37;;;10.70;99.90;;;;;;5055436;28;20205;-61
2022/05/07 02:35:33;;;;;;;22.30;19.90;;;10.90;99.90;;;;;;5055430;28;20219;-60
2022/05/07 02:38:00;;;;;;;22.80;19.57;;;10.90;99.90;;;;;;5055128;28;20688;-62
2022/05/07 02:40:27;;;;;;;24.80;20.40;;;11.00;99.90;;;;;;5055442;28;20216;-61
2022/05/07 02:42:53;;;;;;;22.50;20.10;;;11.00;99.90;;;;;;5055393;28;20251;-61
2022/05/07 02:45:22;;;;;;;20.50;18.17;;;11.00;99.90;;;;;;5055518;28;20186;-59
2022/05/07 02:47:49;;;;;;;22.20;18.37;;;11.20;99.90;;;;;;5055414;28;20312;-59
2022/05/07 02:50:16;;;;;;;21.07;18.27;;;11.40;99.90;;;;;;5055162;28;20215;-59
2022/05/07 02:52:43;;;;;;;23.10;18.43;;;11.40;99.90;;;;;;5055144;28;20410;-59
2022/05/07 02:55:11;;;;;;;19.37;16.67;;;11.50;99.90;;;;;;5055087;28;20226;-59
2022/05/07 02:57:38;;;;;;;19.30;17.33;;;11.60;99.90;;;;;;5055212;28;20205;-59
2022/05/07 03:00:06;;;;;;;19.00;17.03;;;11.60;99.90;;;;;;5054996;28;20355;-58
2022/05/07 03:02:35;;;;;;;19.30;17.13;;;11.70;99.90;;;;;;5054892;28;20206;-58
2022/05/07 03:05:02;;;;;;;20.53;16.43;;;11.60;99.90;;;;;;5055158;28;20237;-58
2022/05/07 03:07:29;;;;;;;18.03;15.73;;;11.70;99.90;;;;;;5054919;28;20203;-58
2022/05/07 03:09:56;;;;;;;18.23;16.10;;;11.70;99.90;;;;;;5054538;28;20239;-58
2022/05/07 03:12:23;;;;;;;19.03;16.23;;;11.80;99.90;;;;;;5054620;28;20210;-58
2022/05/07 03:14:50;;;;;;;18.20;15.47;;;11.80;99.90;;;;;;5054710;28;20570;-59
2022/05/07 03:17:17;;;;;;;17.43;15.60;;;11.80;99.90;;;;;;5054563;28;20214;-58
2022/05/07 03:19:45;;;;;;;17.63;15.73;;;11.80;99.90;;;;;;5054623;28;20635;-58
2022/05/07 03:22:12;;;;;;;21.70;16.00;;;11.80;99.90;;;;;;5054368;28;20191;-59
2022/05/07 03:24:41;;;;;;;17.97;15.70;;;11.90;99.90;;;;;;5054528;28;20219;-59
2022/05/07 03:27:08;;;;;;;17.83;15.93;;;11.90;99.90;;;;;;5054598;28;20195;-59
2022/05/07 03:29:35;;;;;;;16.20;14.47;;;11.90;99.90;;;;;;5054382;28;20229;-58
2022/05/07 03:32:02;;;;;;;19.33;15.30;;;12.00;99.90;;;;;;5054638;28;20202;-58
2022/05/07 03:34:29;;;;;;;17.73;15.83;;;12.00;99.90;;;;;;5054036;28;20598;-58
2022/05/07 03:36:57;;;;;;;16.13;14.43;;;11.90;99.90;;;;;;5054336;28;20222;-58
2022/05/07 03:39:26;;;;;;;17.03;15.03;;;11.70;99.90;;;;;;5054269;28;20574;-59
2022/05/07 03:41:54;;;;;;;17.43;15.13;;;11.70;99.90;;;;;;5053813;28;20195;-59
2022/05/07 03:44:21;;;;;;;17.70;14.73;;;11.70;99.90;;;;;;5054143;28;20281;-59
2022/05/07 03:46:48;;;;;;;19.13;14.93;;;11.60;99.90;;;;;;5054150;28;20203;-58
2022/05/07 03:49:15;;;;;;;16.90;14.77;;;11.60;99.90;;;;;;5054013;28;20195;-59
2022/05/07 03:54:28;;;;;;;17.53;15.63;;;11.60;99.90;;;;;;5053656;28;20186;-59
2022/05/07 03:56:55;;;;;;;17.40;15.17;;;11.60;99.90;;;;;;5053817;28;20203;-59
2022/05/07 03:59:22;;;;;;;16.63;14.83;;;11.60;99.90;;;;;;5053403;28;20199;-61
2022/05/07 04:01:49;;;;;;;18.73;16.00;;;11.50;99.90;;;;;;5054014;28;20207;-59
2022/05/07 04:04:16;;;;;;;20.50;15.27;;;11.50;99.90;;;;;;5054081;28;20559;-59
2022/05/07 04:06:42;;;;;;;18.30;15.83;;;11.60;99.90;;;;;;5053927;28;20195;-58
2022/05/07 04:09:09;;;;;;;15.83;13.80;;;11.60;99.90;;;;;;5053696;28;20272;-59
2022/05/07 04:11:38;;;;;;;17.33;14.30;;;11.70;99.90;;;;;;5053451;28;20228;-60
2022/05/07 04:14:05;;;;;;;16.23;14.53;;;11.70;99.90;;;;;;5053770;28;20198;-59
2022/05/07 04:16:32;;;;;;;17.07;14.97;;;11.60;99.90;;;;;;5053527;28;20245;-59
2022/05/07 04:18:58;;;;;;;15.97;14.37;;;11.70;99.90;;;;;;5053622;28;20207;-61
2022/05/07 04:21:25;;;;;;;16.60;14.53;;;11.70;99.90;;;;;;5053469;28;20560;-58
2022/05/07 04:23:52;;;;;;;15.97;14.37;;;11.80;99.90;;;;;;5053488;28;20203;-58
2022/05/07 04:26:19;;;;;;;17.43;15.63;;;11.80;99.90;;;;;;5053321;28;20202;-60
2022/05/07 04:28:48;;;;;;;17.83;15.83;;;11.90;99.90;;;;;;5053271;28;20207;-59
2022/05/07 04:31:16;;;;;;;17.87;14.03;;;12.00;99.90;;;;;;5053174;28;20207;-59
2022/05/07 04:33:43;;;;;;;16.60;14.53;;;12.00;99.90;;;;;;5053043;28;20675;-59
2022/05/07 04:36:10;;;;;;;17.50;15.70;;;12.10;99.90;;;;;;5053396;28;20215;-59
2022/05/07 04:38:37;;;;;;;18.37;14.43;;;12.10;99.90;;;;;;5053203;28;20207;-59
2022/05/07 04:41:04;;;;;;;17.30;14.50;;;12.10;99.90;;;;;;5053065;28;20196;-59
2022/05/07 04:43:31;;;;;;;16.90;14.10;;;12.20;99.90;;;;;;5053080;28;20593;-59
2022/05/07 04:46:00;;;;;;;15.43;13.87;;;12.40;99.90;;;;;;5053083;28;20567;-58
2022/05/07 04:48:27;;;;;;;16.03;14.33;;;12.50;99.90;;;;;;5052970;28;20555;-59
2022/05/07 04:50:54;;;;;;;16.70;14.93;;;12.50;99.90;;;;;;5053019;28;20202;-59
2022/05/07 04:53:21;;;;;;;15.87;14.07;;;12.50;99.90;;;;;;5052478;28;20298;-59
2022/05/07 04:55:48;;;;;;;16.90;14.67;;;12.60;99.90;;;;;;5052834;28;20220;-59
2022/05/07 04:58:15;;;;;;;14.83;13.33;;;12.60;99.90;;;;;;5052774;28;20310;-59
2022/05/07 05:00:42;;;;;;;14.53;13.07;;;12.60;99.90;;;;;;5052747;28;20200;-58
2022/05/07 05:03:11;;;;;;;16.60;14.70;;;12.70;99.90;;;;;;5052744;28;20200;-58
2022/05/07 05:05:39;;;;;;;16.43;13.90;;;12.50;99.90;;;;;;5052657;28;20269;-58
2022/05/07 05:08:06;;;;;;;15.80;14.10;;;12.50;99.90;;;;;;5052468;28;20692;-58
2022/05/07 05:10:33;;;;;;;14.93;13.53;;;12.50;99.90;;;;;;5052135;28;20227;-58
2022/05/07 05:13:00;;;;;;;15.50;13.90;;;12.50;99.90;;;;;;5052637;28;20203;-58
2022/05/07 05:15:28;;;;;;;15.07;13.50;;;12.50;99.90;;;;;;5052470;28;20208;-58
2022/05/07 05:17:54;;;;;;;15.10;13.60;;;12.50;99.90;;;;;;5052568;28;20234;-57
2022/05/07 05:20:23;;;;;;;15.73;14.03;;;12.50;99.90;;;;;;5052466;28;20219;-57
2022/05/07 05:22:50;;;;;;;15.77;14.10;;;12.60;99.90;;;;;;5052460;28;20203;-58
2022/05/07 05:25:19;;;;;;;16.23;14.20;;;12.60;99.90;;;;;;5052451;28;20191;-58
2022/05/07 05:27:47;;;;;;;16.77;15.07;;;12.60;99.90;;;;;;5049276;28;20628;-58
2022/05/07 05:30:14;;;;;;;15.50;13.90;;;12.60;99.90;;;;;;5032335;28;20200;-58
2022/05/07 05:32:41;;;;;;;16.03;14.50;;;12.60;99.90;;;;;;5032506;28;20208;-58
2022/05/07 05:35:09;;;;;;;17.47;15.63;;;12.60;99.90;;;;;;5032360;28;20220;-59
2022/05/07 05:37:37;;;;;;;16.93;15.17;;;12.60;99.90;;;;;;5032371;28;20215;-59
2022/05/07 05:40:05;;;;;;;18.23;16.33;;;12.60;99.90;;;;;;5032320;28;20540;-59
2022/05/07 05:42:32;;;;;;;16.80;15.00;;;12.70;99.90;;;;;;5031927;28;20651;-59
2022/05/07 05:44:59;;;;;;;18.60;16.23;;;12.70;99.90;;;;;;5032317;28;20205;-59
2022/05/07 05:47:26;;;;;;;18.63;16.07;;;12.80;99.90;;;;;;5032339;28;20270;-58
2022/05/07 05:49:53;;;;;;;17.67;14.90;;;12.90;99.90;;;;;;5032281;28;20204;-59
2022/05/07 05:52:20;;;;;;;18.03;14.67;;;12.90;99.90;;;;;;5032225;28;20204;-59
2022/05/07 05:54:48;;;;;;;16.40;14.30;;;13.00;99.90;;;;;;5032427;28;20200;-59
2022/05/07 05:57:15;;;;;;;16.93;14.73;;;13.10;99.90;;;;;;5032145;28;20212;-61
2022/05/07 05:59:43;;;;;;;16.70;15.00;;;13.20;99.90;;;;;;5031978;28;20230;-59
2022/05/07 06:02:10;;;;;;;15.87;14.27;;;13.30;99.90;;;;;;5032041;28;20242;-60
2022/05/07 06:04:37;;;;;;;16.27;14.40;;;13.40;99.90;;;;;;5032168;28;20211;-59
2022/05/07 06:07:04;;;;;;;19.03;14.93;;;13.50;99.90;;;;;;5035488;28;20291;-59
2022/05/07 06:09:31;;;;;;;16.60;14.90;;;13.40;99.90;;;;;;5035947;28;20192;-59
2022/05/07 06:11:59;;;;;;;16.10;14.40;;;13.60;99.90;;;;;;5036033;28;20184;-59
2022/05/07 06:14:26;;;;;;;17.67;15.60;;;13.70;99.90;;;;;;5036002;28;20218;-59
2022/05/07 06:16:53;;;;;;;17.27;15.43;;;13.80;99.90;;;;;;5035692;28;20618;-59
2022/05/07 06:19:20;;;;;;;16.60;14.70;;;13.70;99.90;;;;;;5035966;28;20215;-59
2022/05/07 06:21:47;;;;;;;16.97;14.83;;;13.80;99.90;;;;;;5035827;28;20216;-59
2022/05/07 06:29:44;;;;;;;17.30;15.50;;;13.80;99.90;;;;;;5035577;28;20189;-59
2022/05/07 06:32:11;;;;;;;16.73;14.97;;;13.70;99.90;;;;;;5035707;28;20543;-61
2022/05/07 06:34:38;;;;;;;16.37;14.67;;;13.80;99.90;;;;;;5035610;28;20203;-60
2022/05/07 06:37:05;;;;;;;17.93;15.13;;;14.00;99.90;;;;;;5035811;28;20208;-60
2022/05/07 06:39:32;;;;;;;16.17;14.43;;;14.10;99.90;;;;;;5035484;28;20245;-60
2022/05/07 06:42:01;;;;;;;15.73;14.17;;;14.30;99.90;;;;;;5035527;28;20283;-60
2022/05/07 06:44:27;;;;;;;16.00;13.63;;;14.70;99.90;;;;;;5035474;28;20248;-60
2022/05/07 06:46:56;;;;;;;15.80;14.20;;;14.80;99.90;;;;;;5035380;28;20300;-60
2022/05/07 06:49:23;;;;;;;16.83;15.03;;;15.00;99.90;;;;;;5035359;28;20255;-59
2022/05/07 06:51:50;;;;;;;16.50;14.80;;;15.00;99.90;;;;;;5035353;28;20200;-60
2022/05/07 06:54:18;;;;;;;16.70;14.73;;;15.20;99.90;;;;;;5035525;28;20213;-61
2022/05/07 06:56:45;;;;;;;15.80;14.13;;;15.50;99.90;;;;;;5035128;28;20618;-60
2022/05/07 06:59:13;;;;;;;17.37;15.57;;;15.60;99.90;;;;;;5035308;28;20203;-60
2022/05/07 07:01:40;;;;;;;17.13;14.80;;;15.60;99.90;;;;;;5035194;28;20205;-60
2022/05/07 07:04:07;;;;;;;20.10;16.67;;;15.50;99.90;;;;;;5035288;28;20198;-60
2022/05/07 07:06:36;;;;;;;17.10;15.30;;;15.60;99.90;;;;;;5035008;28;20201;-59
2022/05/07 07:09:03;;;;;;;19.10;16.73;;;15.90;99.90;;;;;;5034656;28;20205;-61
2022/05/07 07:11:30;;;;;;;17.60;15.70;;;16.40;99.90;;;;;;5033406;28;20242;-61
2022/05/07 07:13:57;;;;;;;17.30;15.60;;;16.70;99.90;;;;;;5033906;28;20207;-61
2022/05/07 07:16:25;;;;;;;31.80;18.80;;;16.40;99.90;;;;;;5033047;28;20238;-61
2022/05/07 07:18:52;;;;;;;19.57;17.67;;;16.50;99.90;;;;;;5033680;28;20211;-61
2022/05/07 07:21:19;;;;;;;19.53;17.63;;;16.60;99.90;;;;;;5033569;28;20202;-59
2022/05/07 07:23:47;;;;;;;21.87;17.70;;;16.90;99.90;;;;;;5033620;28;20205;-61
2022/05/07 07:26:15;;;;;;;23.77;20.20;;;17.10;99.90;;;;;;5033544;28;20224;-61
2022/05/07 07:28:42;;;;;;;21.00;18.83;;;16.80;99.90;;;;;;5033497;28;20279;-60
2022/05/07 07:31:09;;;;;;;19.80;17.80;;;17.30;99.90;;;;;;5033485;28;20676;-60
2022/05/07 07:33:38;;;;;;;18.97;17.10;;;17.80;99.90;;;;;;5033513;28;20204;-60
2022/05/07 07:36:06;;;;;;;20.60;18.60;;;18.20;99.90;;;;;;5033013;28;20247;-61
2022/05/07 07:38:33;;;;;;;22.17;19.70;;;18.20;99.90;;;;;;5033502;28;20551;-62
2022/05/07 07:40:59;;;;;;;19.67;17.87;;;18.20;99.90;;;;;;5033225;28;20196;-61
2022/05/07 07:43:26;;;;;;;21.25;18.98;;;18.40;99.90;;;;;;5033165;28;20569;-61
2022/05/07 07:48:40;;;;;;;20.73;18.53;;;18.00;99.90;;;;;;5033213;28;20535;-61
2022/05/07 07:51:07;;;;;;;21.27;19.17;;;18.30;99.90;;;;;;5033357;28;20242;-61
2022/05/07 07:53:35;;;;;;;20.27;18.27;;;18.70;99.90;;;;;;5033049;28;20196;-61
2022/05/07 07:56:01;;;;;;;20.20;18.10;;;19.10;99.90;;;;;;5032963;28;20212;-62
2022/05/07 07:58:28;;;;;;;21.38;19.27;;;19.40;99.90;;;;;;5032663;28;20207;-61
2022/05/07 08:00:55;;;;;;;20.75;18.70;;;20.10;99.90;;;;;;5032957;28;20208;-61
2022/05/07 08:03:23;;;;;;;20.60;18.35;;;20.50;99.90;;;;;;5032936;28;20216;-61
2022/05/07 08:05:53;;;;;;;20.65;18.65;;;20.30;99.90;;;;;;5032892;28;20219;-61
2022/05/07 08:13:53;;;;;;;22.77;19.67;;;20.70;99.90;;;;;;5033714;28;20981;-61
2022/05/07 08:16:20;;;;;;;22.75;20.55;;;21.30;99.90;;;;;;5032780;28;20603;-61
2022/05/07 08:18:49;;;;;;;23.98;21.65;;;20.80;99.90;;;;;;5033421;28;20204;-62
2022/05/07 08:21:18;;;;;;;23.67;21.38;;;20.60;99.90;;;;;;5033924;28;20290;-61
2022/05/07 08:23:45;;;;;;;22.58;20.25;;;20.60;99.90;;;;;;5033689;28;20283;-61
2022/05/07 08:26:12;;;;;;;22.20;20.00;;;21.20;99.90;;;;;;5033656;28;20196;-62
2022/05/07 08:28:40;;;;;;;20.77;18.88;;;21.60;93.10;;;;;;5032558;28;20259;-61
2022/05/07 08:31:10;;;;;;;21.17;18.15;;;21.80;71.80;;;;;;5033523;28;20208;-61
2022/05/07 08:33:39;;;;;;;21.10;19.15;;;21.50;70.40;;;;;;5033390;28;20254;-61
2022/05/07 08:36:07;;;;;;;23.40;20.02;;;21.50;58.00;;;;;;5033262;28;20220;-61
2022/05/07 08:38:35;;;;;;;21.50;19.40;;;21.40;45.60;;;;;;5033294;28;20681;-61
2022/05/07 08:41:02;;;;;;;21.63;19.52;;;21.80;33.20;;;;;;5033103;28;20188;-61
2022/05/07 08:43:33;;;;;;;22.52;20.33;;;22.20;30.60;;;;;;5033369;28;20211;-62
2022/05/07 08:46:01;;;;;;;22.08;19.88;;;21.20;11.30;;;;;;5032908;28;20181;-62
2022/05/07 08:48:28;;;;;;;21.23;19.23;;;21.50;25.90;;;;;;5033101;28;20200;-62
2022/05/07 08:50:56;;;;;;;22.35;20.23;;;22.20;4.60;;;;;;5033103;28;20212;-62
2022/05/07 08:53:23;;;;;;;22.98;20.58;;;21.60;1.00;;;;;;5032682;28;20684;-61
2022/05/07 08:55:54;;;;;;;20.48;18.58;;;22.90;1.00;;;;;;5032627;28;20204;-62
2022/05/07 08:58:21;;;;;;;22.45;20.15;;;22.90;1.00;;;;;;5032845;28;20197;-62
2022/05/07 09:00:48;;;;;;;22.17;20.25;;;22.80;1.00;;;;;;5032801;28;20295;-62
2022/05/07 09:03:17;;;;;;;22.48;20.17;;;22.40;1.00;;;;;;5032865;28;20204;-61
2022/05/07 09:05:44;;;;;;;19.83;17.92;;;22.50;1.00;;;;;;5032834;28;20247;-61
2022/05/07 09:08:11;;;;;;;18.85;17.15;;;22.80;1.00;;;;;;5032781;28;20200;-62
2022/05/07 09:10:39;;;;;;;20.05;18.15;;;23.90;1.00;;;;;;5032308;28;20231;-62
2022/05/07 09:13:15;;;;;;;20.55;18.65;;;23.20;1.00;;;;;;5032367;28;20680;-62
2022/05/07 09:15:53;;;;;;;20.77;18.77;;;23.10;1.00;;;;;;5032570;28;20262;-62
2022/05/07 09:18:22;;;;;;;20.15;18.30;;;23.00;1.00;;;;;;5032486;28;20327;-62
2022/05/07 09:21:15;;;;;;;21.55;19.33;;;22.90;1.00;;;;;;5032220;28;20207;-62
2022/05/07 09:23:44;;;;;;;20.67;18.75;;;22.80;1.00;;;;;;5032459;28;20195;-62
2022/05/07 09:26:11;;;;;;;20.42;18.35;;;23.30;1.00;;;;;;5032197;28;20632;-62
2022/05/07 09:28:39;;;;;;;21.33;19.33;;;23.70;1.00;;;;;;5032145;28;20258;-62
2022/05/07 09:31:08;;;;;;;20.20;18.40;;;24.40;1.00;;;;;;5032374;28;20223;-62
2022/05/07 09:33:36;;;;;;;23.27;20.90;;;23.50;1.00;;;;;;5032222;28;20232;-62
2022/05/07 09:36:10;;;;;;;22.33;20.23;;;23.10;1.00;;;;;;5032279;28;20196;-62
2022/05/07 09:38:38;;;;;;;22.23;20.00;;;22.90;1.00;;;;;;5032313;28;20199;-61
2022/05/07 09:41:06;;;;;;;21.50;19.30;;;23.50;1.00;;;;;;5032346;28;20603;-61
2022/05/07 09:43:33;;;;;;;22.58;20.33;;;23.50;1.00;;;;;;5031958;28;20680;-62
2022/05/07 09:46:02;;;;;;;22.35;20.00;;;23.20;1.00;;;;;;5032193;28;20742;-61
2022/05/07 09:48:30;;;;;;;22.20;19.95;;;23.20;1.00;;;;;;5031931;28;20668;-61
2022/05/07 09:50:58;;;;;;;22.35;20.13;;;23.10;1.00;;;;;;5032290;28;20295;-62
2022/05/07 09:58:53;;;;;;;24.40;21.90;;;23.10;1.00;;;;;;5032160;28;20544;-61
2022/05/07 10:01:41;;;;;;;22.50;20.15;;;23.00;1.00;;;;;;5032121;28;20215;-61
2022/05/07 10:04:24;;;;;;;22.77;20.58;;;22.60;1.00;;;;;;5032232;28;20189;-61
2022/05/07 10:07:02;;;;;;;23.75;21.33;;;22.80;1.00;;;;;;5032238;28;20710;-61
2022/05/07 10:09:41;;;;;;;21.88;19.83;;;22.50;1.00;;;;;;5031958;28;20192;-61
2022/05/07 10:12:09;;;;;;;28.05;21.92;;;22.50;1.00;;;;;;5031933;28;20271;-61
2022/05/07 10:14:36;;;;;;;40.33;25.13;;;22.40;1.00;;;;;;5032164;28;20208;-61
2022/05/07 10:17:12;;;;;;;25.75;23.25;;;22.80;1.00;;;;;;5031880;28;20231;-61
2022/05/07 10:19:40;;;;;;;29.85;21.50;;;22.80;1.00;;;;;;5031885;28;20188;-62
2022/05/07 10:22:18;;;;;;;22.83;20.63;;;22.90;1.00;;;;;;5032153;28;20203;-62
2022/05/07 10:24:46;;;;;;;23.95;20.15;;;22.80;1.00;;;;;;5031929;28;20616;-61
2022/05/07 10:27:21;;;;;;;22.65;20.60;;;22.60;1.00;;;;;;5031819;28;20235;-61
2022/05/07 10:29:50;;;;;;;24.02;21.58;;;22.60;1.00;;;;;;5031371;28;20227;-61
2022/05/07 10:32:21;;;;;;;22.98;20.55;;;22.70;1.00;;;;;;5031643;28;20295;-61
2022/05/07 10:34:53;;;;;;;23.60;21.17;;;22.70;1.00;;;;;;5031904;28;20364;-61
2022/05/07 10:37:20;;;;;;;22.33;20.13;;;23.20;1.00;;;;;;5031690;28;20220;-62
2022/05/07 10:39:52;;;;;;;21.80;19.55;;;23.60;1.00;;;;;;5031857;28;20212;-62
2022/05/07 10:42:21;;;;;;;21.73;19.33;;;23.90;1.00;;;;;;5031823;28;20208;-61
2022/05/07 10:44:50;;;;;;;22.17;19.88;;;23.90;1.00;;;;;;5031813;28;20239;-61
2022/05/07 10:47:20;;;;;;;21.83;19.80;;;24.30;1.00;;;;;;5031488;28;20720;-61
2022/05/07 10:49:54;;;;;;;22.33;20.33;;;24.10;1.00;;;;;;5031442;28;20779;-62
2022/05/07 10:52:32;;;;;;;20.27;18.38;;;24.30;1.00;;;;;;5033640;28;20204;-62
2022/05/07 10:55:24;;;;;;;22.08;19.67;;;24.30;1.00;;;;;;5035418;28;20556;-61
2022/05/07 10:57:52;;;;;;;20.70;18.60;;;24.20;1.00;;;;;;5031410;28;20216;-61
2022/05/07 11:00:20;;;;;;;19.50;17.65;;;24.00;1.00;;;;;;5034790;28;20266;-61
2022/05/07 11:02:50;;;;;;;20.15;18.25;;;24.50;1.00;;;;;;5034861;28;20658;-61
2022/05/07 11:05:18;;;;;;;19.05;17.23;;;24.80;1.00;;;;;;5035282;28;20233;-61
2022/05/07 11:07:45;;;;;;;19.23;17.30;;;25.30;1.00;;;;;;5034964;28;20568;-61
2022/05/07 11:10:12;;;;;;;20.65;18.55;;;25.50;1.00;;;;;;5034500;28;20247;-61
2022/05/07 11:12:40;;;;;;;19.95;18.05;;;25.30;1.00;;;;;;5034982;28;20199;-61
2022/05/07 11:15:08;;;;;;;17.25;15.60;;;25.60;1.00;;;;;;5035036;28;20204;-62
2022/05/07 11:17:38;;;;;;;17.15;15.25;;;25.30;1.00;;;;;;5034925;28;20220;-61
2022/05/07 11:20:07;;;;;;;17.80;16.20;;;25.10;1.00;;;;;;5034944;28;20200;-61
2022/05/07 11:22:35;;;;;;;19.85;17.95;;;24.60;1.00;;;;;;5034485;28;20700;-61
2022/05/07 11:25:05;;;;;;;18.88;16.88;;;24.80;1.00;;;;;;5034586;28;20290;-62
2022/05/07 11:27:33;;;;;;;18.65;16.67;;;25.20;1.00;;;;;;5035020;28;20177;-61
2022/05/07 11:30:01;;;;;;;18.45;16.52;;;25.00;1.00;;;;;;5034785;28;20299;-62
2022/05/07 11:32:38;;;;;;;18.23;16.02;;;24.60;1.00;;;;;;5034683;28;20200;-61
2022/05/07 11:35:08;;;;;;;17.83;16.02;;;24.30;1.00;;;;;;5034634;28;20234;-61
2022/05/07 11:37:40;;;;;;;17.40;15.70;;;24.30;1.00;;;;;;5034174;28;20212;-62
2022/05/07 11:40:09;;;;;;;21.58;17.10;;;24.10;1.00;;;;;;5034173;28;20688;-61
2022/05/07 11:42:37;;;;;;;16.83;15.25;;;23.10;1.00;;;;;;5034572;28;20529;-62
2022/05/07 11:45:29;;;;;;;16.80;14.98;;;22.80;1.00;;;;;;5034040;28;20204;-61
2022/05/07 11:47:58;;;;;;;15.60;13.75;;;23.10;1.00;;;;;;5034353;28;20599;-62
2022/05/07 11:50:27;;;;;;;15.20;13.70;;;24.30;1.00;;;;;;5034390;28;20204;-62
2022/05/07 11:52:55;;;;;;;16.65;14.68;;;24.70;1.00;;;;;;5034375;28;20327;-61
2022/05/07 11:55:27;;;;;;;17.88;16.23;;;24.40;1.00;;;;;;5034249;28;20196;-62
2022/05/07 11:57:55;;;;;;;15.10;13.52;;;24.80;1.00;;;;;;5034116;28;20216;-62
2022/05/07 12:00:24;;;;;;;15.43;13.93;;;25.20;1.00;;;;;;5033777;28;20211;-61
2022/05/07 12:02:53;;;;;;;16.88;14.70;;;25.50;1.00;;;;;;5033278;28;20559;-61
2022/05/07 12:05:21;;;;;;;15.43;13.93;;;25.80;1.00;;;;;;5033844;28;20200;-61
2022/05/07 12:07:51;;;;;;;16.27;14.68;;;26.50;1.00;;;;;;5033970;28;20204;-61
2022/05/07 12:10:19;;;;;;;14.23;12.75;;;26.10;1.00;;;;;;5033531;28;20314;-61
2022/05/07 12:12:47;;;;;;;15.35;13.75;;;26.30;1.00;;;;;;5033941;28;20193;-61
2022/05/07 12:15:14;;;;;;;15.05;13.38;;;25.80;1.00;;;;;;5033838;28;20309;-61
2022/05/07 12:17:52;;;;;;;13.93;12.60;;;24.90;1.00;;;;;;5033348;28;20220;-62
2022/05/07 12:20:21;;;;;;;16.25;13.90;;;23.90;1.00;;;;;;5033487;28;20630;-61
2022/05/07 12:31:04;;;;;;;8.32;7.53;;;24.50;1.00;;;;;;5033375;28;20184;-61
2022/05/07 12:33:32;;;;;;;6.30;5.70;;;24.80;1.00;;;;;;5033499;28;20203;-62
2022/05/07 12:35:59;;;;;;;7.80;6.05;;;24.20;1.00;;;;;;5033619;28;20212;-61
2022/05/07 12:38:28;;;;;;;8.30;6.00;;;23.40;1.00;;;;;;5033341;28;20294;-62
2022/05/07 12:40:55;;;;;;;14.55;6.70;;;23.30;1.00;;;;;;5033199;28;20223;-61
2022/05/07 12:43:22;;;;;;;6.82;5.15;;;23.30;1.00;;;;;;5033292;28;20220;-61
2022/05/07 12:45:50;;;;;;;8.27;5.32;;;23.30;1.00;;;;;;5033225;28;20266;-62
2022/05/07 12:48:17;;;;;;;5.30;3.53;;;23.40;1.00;;;;;;5033142;28;20549;-61
2022/05/07 12:50:46;;;;;;;7.55;6.55;;;23.60;1.00;;;;;;5033059;28;20192;-63
2022/05/07 12:53:14;;;;;;;6.35;5.55;;;23.10;1.00;;;;;;5033112;28;20266;-61
2022/05/07 12:55:43;;;;;;;6.15;4.45;;;22.80;1.00;;;;;;5033128;28;20598;-62
2022/05/07 12:58:11;;;;;;;9.20;8.30;;;22.70;1.00;;;;;;5033257;28;20299;-62
2022/05/07 13:00:39;;;;;;;9.50;8.52;;;22.70;1.00;;;;;;5032923;28;20254;-61
2022/05/07 13:03:06;;;;;;;8.85;8.00;;;23.00;1.00;;;;;;5032988;28;20196;-62
2022/05/07 13:05:34;;;;;;;7.78;6.97;;;23.00;1.00;;;;;;5032883;28;20251;-60
2022/05/07 13:08:03;;;;;;;7.15;6.55;;;23.00;1.00;;;;;;5032526;28;20224;-62
2022/05/07 13:10:31;;;;;;;7.15;6.55;;;23.20;1.00;;;;;;5032710;28;20232;-61